sensor_id;sensor_type;location;lat;lon;timestamp;temperature;humidity
935;DHT22;454;53.254;10.400;2023-07-31T04:01:58;15.60;99.90
935;DHT22;454;53.254;10.400;2023-07-31T04:04:24;15.60;99.90
935;DHT22;454;53.254;10.400;2023-07-31T04:06:51;15.60;99.90
935;DHT22;454;53.254;10.400;2023-07-31T04:09:18;15.60;99.90
935;DHT22;454;53.254;10.400;2023-07-31T04:11:45;15.60;99.90
935;DHT22;454;53.254;10.400;2023-07-31T04:14:11;15.60;99.90
935;DHT22;454;53.254;10.400;2023-07-31T04:16:38;15.60;99.90
935;DHT22;454;53.254;10.400;2023-07-31T04:19:06;15.60;99.90
935;DHT22;454;53.254;10.400;2023-07-31T04:21:32;15.60;99.90
935;DHT22;454;53.254;10.400;2023-07-31T04:23:59;15.60;99.90
935;DHT22;454;53.254;10.400;2023-07-31T04:26:26;15.60;99.90
935;DHT22;454;53.254;10.400;2023-07-31T04:28:52;15.50;99.90
935;DHT22;454;53.254;10.400;2023-07-31T04:31:19;15.50;99.90
935;DHT22;454;53.254;10.400;2023-07-31T04:33:46;15.50;99.90
935;DHT22;454;53.254;10.400;2023-07-31T04:36:14;15.50;99.90
935;DHT22;454;53.254;10.400;2023-07-31T04:38:40;15.60;99.90
935;DHT22;454;53.254;10.400;2023-07-31T04:41:07;15.50;99.90
935;DHT22;454;53.254;10.400;2023-07-31T04:43:34;15.50;99.90
935;DHT22;454;53.254;10.400;2023-07-31T04:46:00;15.50;99.90
935;DHT22;454;53.254;10.400;2023-07-31T04:48:27;15.50;99.90
935;DHT22;454;53.254;10.400;2023-07-31T04:50:54;15.50;99.90
935;DHT22;454;53.254;10.400;2023-07-31T04:53:22;15.40;99.90
935;DHT22;454;53.254;10.400;2023-07-31T04:55:48;15.40;99.90
935;DHT22;454;53.254;10.400;2023-07-31T04:58:15;15.40;99.90
935;DHT22;454;53.254;10.400;2023-07-31T05:00:42;15.40;99.90
935;DHT22;454;53.254;10.400;2023-07-31T05:03:08;15.40;99.90
935;DHT22;454;53.254;10.400;2023-07-31T05:05:36;15.40;99.90
935;DHT22;454;53.254;10.400;2023-07-31T05:08:03;15.40;99.90
935;DHT22;454;53.254;10.400;2023-07-31T05:10:31;15.40;99.90
935;DHT22;454;53.254;10.400;2023-07-31T05:12:57;15.40;99.90
935;DHT22;454;53.254;10.400;2023-07-31T05:15:24;15.40;99.90
935;DHT22;454;53.254;10.400;2023-07-31T05:17:51;15.40;99.90
935;DHT22;454;53.254;10.400;2023-07-31T05:20:17;15.50;99.90
935;DHT22;454;53.254;10.400;2023-07-31T05:22:44;15.50;99.90
935;DHT22;454;53.254;10.400;2023-07-31T05:25:11;15.50;99.90
935;DHT22;454;53.254;10.400;2023-07-31T05:27:39;15.50;99.90
935;DHT22;454;53.254;10.400;2023-07-31T05:30:06;15.50;99.90
935;DHT22;454;53.254;10.400;2023-07-31T05:32:33;15.50;99.90
935;DHT22;454;53.254;10.400;2023-07-31T05:35:00;15.50;99.90
935;DHT22;454;53.254;10.400;2023-07-31T05:37:27;15.60;99.90
935;DHT22;454;53.254;10.400;2023-07-31T05:39:53;15.60;99.90
935;DHT22;454;53.254;10.400;2023-07-31T05:42:20;15.70;99.90
935;DHT22;454;53.254;10.400;2023-07-31T05:44:48;15.70;99.90
935;DHT22;454;53.254;10.400;2023-07-31T05:47:18;15.80;99.90
935;DHT22;454;53.254;10.400;2023-07-31T05:49:44;15.80;99.90
935;DHT22;454;53.254;10.400;2023-07-31T05:52:11;15.80;99.90
935;DHT22;454;53.254;10.400;2023-07-31T05:54:38;15.80;99.90
935;DHT22;454;53.254;10.400;2023-07-31T05:57:05;15.90;99.90
935;DHT22;454;53.254;10.400;2023-07-31T05:59:32;16.00;99.90
935;DHT22;454;53.254;10.400;2023-07-31T06:02:00;15.90;99.90
935;DHT22;454;53.254;10.400;2023-07-31T06:04:26;15.90;99.90
935;DHT22;454;53.254;10.400;2023-07-31T06:06:53;16.00;99.90
935;DHT22;454;53.254;10.400;2023-07-31T06:09:21;16.10;99.90
935;DHT22;454;53.254;10.400;2023-07-31T06:11:47;16.10;99.90
935;DHT22;454;53.254;10.400;2023-07-31T06:14:14;16.20;99.90
935;DHT22;454;53.254;10.400;2023-07-31T06:16:41;16.30;99.90
935;DHT22;454;53.254;10.400;2023-07-31T06:19:10;16.30;99.90
935;DHT22;454;53.254;10.400;2023-07-31T06:21:38;16.40;99.90
935;DHT22;454;53.254;10.400;2023-07-31T06:24:08;16.40;99.90
935;DHT22;454;53.254;10.400;2023-07-31T06:26:35;16.40;99.90
935;DHT22;454;53.254;10.400;2023-07-31T06:29:01;16.50;99.90
935;DHT22;454;53.254;10.400;2023-07-31T06:31:28;16.50;99.90
935;DHT22;454;53.254;10.400;2023-07-31T06:33:55;16.60;99.90
935;DHT22;454;53.254;10.400;2023-07-31T06:36:23;16.60;99.90
935;DHT22;454;53.254;10.400;2023-07-31T06:38:50;16.60;99.90
935;DHT22;454;53.254;10.400;2023-07-31T06:41:16;16.60;99.90
935;DHT22;454;53.254;10.400;2023-07-31T06:43:43;16.60;99.90
935;DHT22;454;53.254;10.400;2023-07-31T06:46:10;16.60;99.90
935;DHT22;454;53.254;10.400;2023-07-31T06:48:36;16.60;99.90
935;DHT22;454;53.254;10.400;2023-07-31T06:51:03;16.70;99.90
935;DHT22;454;53.254;10.400;2023-07-31T06:53:31;16.80;99.90
935;DHT22;454;53.254;10.400;2023-07-31T06:55:58;16.90;99.90
935;DHT22;454;53.254;10.400;2023-07-31T06:58:25;17.00;99.90
935;DHT22;454;53.254;10.400;2023-07-31T07:00:52;17.10;99.90
935;DHT22;454;53.254;10.400;2023-07-31T07:03:19;17.10;99.90
935;DHT22;454;53.254;10.400;2023-07-31T07:05:46;17.10;99.90
935;DHT22;454;53.254;10.400;2023-07-31T07:08:13;17.20;99.90
935;DHT22;454;53.254;10.400;2023-07-31T07:10:41;17.40;99.90
935;DHT22;454;53.254;10.400;2023-07-31T07:13:08;17.40;99.90
935;DHT22;454;53.254;10.400;2023-07-31T07:15:35;17.40;99.90
935;DHT22;454;53.254;10.400;2023-07-31T07:18:02;17.40;99.90
935;DHT22;454;53.254;10.400;2023-07-31T07:20:28;17.40;99.90
935;DHT22;454;53.254;10.400;2023-07-31T07:22:55;17.40;99.90
935;DHT22;454;53.254;10.400;2023-07-31T07:25:22;17.30;99.90
935;DHT22;454;53.254;10.400;2023-07-31T07:27:50;17.40;99.90
935;DHT22;454;53.254;10.400;2023-07-31T07:30:17;17.40;99.90
935;DHT22;454;53.254;10.400;2023-07-31T07:32:43;17.40;99.90
935;DHT22;454;53.254;10.400;2023-07-31T07:35:10;17.40;99.90
935;DHT22;454;53.254;10.400;2023-07-31T07:37:37;17.30;99.90
935;DHT22;454;53.254;10.400;2023-07-31T07:40:04;17.20;99.90
935;DHT22;454;53.254;10.400;2023-07-31T07:42:31;17.30;99.90
935;DHT22;454;53.254;10.400;2023-07-31T07:44:59;17.30;99.90
935;DHT22;454;53.254;10.400;2023-07-31T07:47:26;17.30;99.90
935;DHT22;454;53.254;10.400;2023-07-31T07:49:52;17.30;99.90
935;DHT22;454;53.254;10.400;2023-07-31T07:52:19;17.20;99.90
935;DHT22;454;53.254;10.400;2023-07-31T08:04:00;17.30;99.90
935;DHT22;454;53.254;10.400;2023-07-31T08:06:27;17.20;99.90
935;DHT22;454;53.254;10.400;2023-07-31T08:08:55;17.20;99.90
935;DHT22;454;53.254;10.400;2023-07-31T08:11:21;17.10;99.90
935;DHT22;454;53.254;10.400;2023-07-31T08:13:49;17.10;99.90
935;DHT22;454;53.254;10.400;2023-07-31T08:16:15;17.10;99.90
935;DHT22;454;53.254;10.400;2023-07-31T08:18:42;17.10;99.90
935;DHT22;454;53.254;10.400;2023-07-31T08:26:16;17.00;99.90
935;DHT22;454;53.254;10.400;2023-07-31T08:28:43;17.00;99.90
935;DHT22;454;53.254;10.400;2023-07-31T08:31:10;17.00;99.90
935;DHT22;454;53.254;10.400;2023-07-31T08:33:37;17.10;99.90
935;DHT22;454;53.254;10.400;2023-07-31T08:36:04;17.10;99.90
935;DHT22;454;53.254;10.400;2023-07-31T08:38:31;17.20;99.90
935;DHT22;454;53.254;10.400;2023-07-31T08:41:00;17.20;99.90
935;DHT22;454;53.254;10.400;2023-07-31T08:43:30;17.10;99.90
935;DHT22;454;53.254;10.400;2023-07-31T08:45:59;17.10;99.90
935;DHT22;454;53.254;10.400;2023-07-31T08:48:26;17.00;99.90
935;DHT22;454;53.254;10.400;2023-07-31T08:50:54;17.00;99.90
935;DHT22;454;53.254;10.400;2023-07-31T08:53:21;17.00;99.90
935;DHT22;454;53.254;10.400;2023-07-31T08:55:49;17.00;99.90
935;DHT22;454;53.254;10.400;2023-07-31T08:58:17;16.90;99.90
935;DHT22;454;53.254;10.400;2023-07-31T09:00:47;16.90;99.90
935;DHT22;454;53.254;10.400;2023-07-31T09:03:14;17.00;99.90
935;DHT22;454;53.254;10.400;2023-07-31T09:05:43;17.00;99.90
935;DHT22;454;53.254;10.400;2023-07-31T09:08:11;17.10;99.90
935;DHT22;454;53.254;10.400;2023-07-31T09:10:40;17.00;99.90
935;DHT22;454;53.254;10.400;2023-07-31T09:13:08;17.10;99.90
935;DHT22;454;53.254;10.400;2023-07-31T09:15:35;17.10;99.90
935;DHT22;454;53.254;10.400;2023-07-31T09:18:05;17.20;99.90
935;DHT22;454;53.254;10.400;2023-07-31T09:20:32;17.20;99.90
935;DHT22;454;53.254;10.400;2023-07-31T09:23:05;17.30;99.90
935;DHT22;454;53.254;10.400;2023-07-31T09:25:34;17.40;99.90
935;DHT22;454;53.254;10.400;2023-07-31T09:28:02;17.40;99.90
935;DHT22;454;53.254;10.400;2023-07-31T09:30:29;17.40;99.90
935;DHT22;454;53.254;10.400;2023-07-31T09:33:01;17.40;99.90
935;DHT22;454;53.254;10.400;2023-07-31T09:35:31;17.40;99.90
935;DHT22;454;53.254;10.400;2023-07-31T09:38:00;17.40;99.90
935;DHT22;454;53.254;10.400;2023-07-31T09:40:28;17.30;99.90
935;DHT22;454;53.254;10.400;2023-07-31T09:42:59;17.40;99.90
935;DHT22;454;53.254;10.400;2023-07-31T09:45:26;17.50;99.90
935;DHT22;454;53.254;10.400;2023-07-31T09:47:54;17.60;99.90
935;DHT22;454;53.254;10.400;2023-07-31T09:50:22;17.60;99.90
935;DHT22;454;53.254;10.400;2023-07-31T09:52:51;17.60;99.90
935;DHT22;454;53.254;10.400;2023-07-31T09:55:19;17.50;99.90
935;DHT22;454;53.254;10.400;2023-07-31T09:57:47;17.60;99.90
935;DHT22;454;53.254;10.400;2023-07-31T10:00:16;17.70;99.90
935;DHT22;454;53.254;10.400;2023-07-31T10:02:45;17.80;99.90
935;DHT22;454;53.254;10.400;2023-07-31T10:05:13;17.90;99.90
935;DHT22;454;53.254;10.400;2023-07-31T10:07:42;18.00;99.90
935;DHT22;454;53.254;10.400;2023-07-31T10:10:11;17.90;99.90
935;DHT22;454;53.254;10.400;2023-07-31T10:12:38;17.90;99.90
935;DHT22;454;53.254;10.400;2023-07-31T10:15:06;18.00;99.90
935;DHT22;454;53.254;10.400;2023-07-31T10:17:35;18.00;99.90
935;DHT22;454;53.254;10.400;2023-07-31T10:20:02;18.20;99.90
935;DHT22;454;53.254;10.400;2023-07-31T10:22:30;18.20;99.90
935;DHT22;454;53.254;10.400;2023-07-31T10:24:58;18.20;99.90
935;DHT22;454;53.254;10.400;2023-07-31T10:27:26;18.40;99.90
935;DHT22;454;53.254;10.400;2023-07-31T10:29:55;18.40;99.90
935;DHT22;454;53.254;10.400;2023-07-31T10:32:23;18.50;99.90
935;DHT22;454;53.254;10.400;2023-07-31T10:34:51;18.60;99.90
935;DHT22;454;53.254;10.400;2023-07-31T10:37:27;18.90;99.90
935;DHT22;454;53.254;10.400;2023-07-31T10:39:59;19.10;99.90
935;DHT22;454;53.254;10.400;2023-07-31T10:42:34;19.00;99.90
935;DHT22;454;53.254;10.400;2023-07-31T10:45:04;18.90;99.90
935;DHT22;454;53.254;10.400;2023-07-31T10:47:31;18.80;99.90
935;DHT22;454;53.254;10.400;2023-07-31T10:50:16;18.90;99.90
935;DHT22;454;53.254;10.400;2023-07-31T10:52:46;18.90;99.90
935;DHT22;454;53.254;10.400;2023-07-31T10:55:24;18.80;99.90
935;DHT22;454;53.254;10.400;2023-07-31T10:57:52;18.80;99.90
935;DHT22;454;53.254;10.400;2023-07-31T11:00:21;18.70;99.90
935;DHT22;454;53.254;10.400;2023-07-31T11:02:58;18.60;99.90
935;DHT22;454;53.254;10.400;2023-07-31T11:05:48;18.60;99.90
935;DHT22;454;53.254;10.400;2023-07-31T11:08:17;18.70;99.90
935;DHT22;454;53.254;10.400;2023-07-31T11:10:45;18.80;99.90
935;DHT22;454;53.254;10.400;2023-07-31T11:13:14;18.70;99.90
935;DHT22;454;53.254;10.400;2023-07-31T11:15:41;18.80;99.90
935;DHT22;454;53.254;10.400;2023-07-31T11:18:07;18.80;99.90
935;DHT22;454;53.254;10.400;2023-07-31T11:20:36;18.80;99.90
935;DHT22;454;53.254;10.400;2023-07-31T11:23:05;18.80;99.90
935;DHT22;454;53.254;10.400;2023-07-31T11:25:33;18.80;99.90
935;DHT22;454;53.254;10.400;2023-07-31T11:28:03;18.90;99.90
935;DHT22;454;53.254;10.400;2023-07-31T11:30:32;18.90;99.90
935;DHT22;454;53.254;10.400;2023-07-31T11:33:00;19.10;99.90
935;DHT22;454;53.254;10.400;2023-07-31T11:35:28;19.10;99.90
935;DHT22;454;53.254;10.400;2023-07-31T11:37:55;19.30;99.90
935;DHT22;454;53.254;10.400;2023-07-31T11:40:22;19.20;99.90
935;DHT22;454;53.254;10.400;2023-07-31T11:42:54;19.20;99.90
935;DHT22;454;53.254;10.400;2023-07-31T11:45:21;19.30;99.90
935;DHT22;454;53.254;10.400;2023-07-31T11:47:52;19.30;99.90
935;DHT22;454;53.254;10.400;2023-07-31T11:50:20;19.20;99.90
935;DHT22;454;53.254;10.400;2023-07-31T11:52:48;19.20;99.90
935;DHT22;454;53.254;10.400;2023-07-31T11:55:17;19.10;99.90
935;DHT22;454;53.254;10.400;2023-07-31T11:57:44;19.20;99.90
935;DHT22;454;53.254;10.400;2023-07-31T12:00:13;19.10;99.90
935;DHT22;454;53.254;10.400;2023-07-31T12:02:40;19.10;99.90
935;DHT22;454;53.254;10.400;2023-07-31T12:05:12;19.10;99.90
935;DHT22;454;53.254;10.400;2023-07-31T12:07:50;19.00;99.90
935;DHT22;454;53.254;10.400;2023-07-31T12:10:27;19.00;99.90
935;DHT22;454;53.254;10.400;2023-07-31T12:13:01;19.10;99.90
935;DHT22;454;53.254;10.400;2023-07-31T12:15:39;19.20;99.90
935;DHT22;454;53.254;10.400;2023-07-31T12:18:07;19.20;99.90
935;DHT22;454;53.254;10.400;2023-07-31T12:20:39;19.30;99.90
935;DHT22;454;53.254;10.400;2023-07-31T12:23:07;19.30;99.90
935;DHT22;454;53.254;10.400;2023-07-31T12:25:34;19.20;99.90
935;DHT22;454;53.254;10.400;2023-07-31T12:28:05;19.20;99.90
935;DHT22;454;53.254;10.400;2023-07-31T12:30:36;19.50;99.90
935;DHT22;454;53.254;10.400;2023-07-31T12:33:04;19.30;99.90
935;DHT22;454;53.254;10.400;2023-07-31T12:35:36;19.40;99.90
935;DHT22;454;53.254;10.400;2023-07-31T12:38:03;19.40;99.90
935;DHT22;454;53.254;10.400;2023-07-31T12:40:30;19.30;99.90
935;DHT22;454;53.254;10.400;2023-07-31T12:42:57;19.30;99.90
935;DHT22;454;53.254;10.400;2023-07-31T12:45:24;19.30;99.90
935;DHT22;454;53.254;10.400;2023-07-31T12:47:50;19.30;99.90
935;DHT22;454;53.254;10.400;2023-07-31T12:50:17;19.30;99.90
935;DHT22;454;53.254;10.400;2023-07-31T12:52:45;19.30;99.90
935;DHT22;454;53.254;10.400;2023-07-31T12:55:12;19.20;99.90
935;DHT22;454;53.254;10.400;2023-07-31T12:57:39;19.20;99.90
935;DHT22;454;53.254;10.400;2023-07-31T13:00:07;19.20;99.90
935;DHT22;454;53.254;10.400;2023-07-31T13:02:34;19.20;99.90
935;DHT22;454;53.254;10.400;2023-07-31T13:05:00;19.20;99.90
935;DHT22;454;53.254;10.400;2023-07-31T13:07:27;19.20;99.90
935;DHT22;454;53.254;10.400;2023-07-31T13:09:55;19.20;99.90
935;DHT22;454;53.254;10.400;2023-07-31T13:12:22;19.20;99.90
935;DHT22;454;53.254;10.400;2023-07-31T13:14:49;19.00;99.90
935;DHT22;454;53.254;10.400;2023-07-31T13:17:16;18.90;99.90
935;DHT22;454;53.254;10.400;2023-07-31T13:19:42;18.80;99.90
935;DHT22;454;53.254;10.400;2023-07-31T13:22:09;18.80;99.90
935;DHT22;454;53.254;10.400;2023-07-31T13:24:36;18.80;99.90
935;DHT22;454;53.254;10.400;2023-07-31T13:27:04;18.80;99.90
935;DHT22;454;53.254;10.400;2023-07-31T13:29:31;18.80;99.90
935;DHT22;454;53.254;10.400;2023-07-31T13:31:58;18.60;99.90
935;DHT22;454;53.254;10.400;2023-07-31T13:34:25;18.70;99.90
935;DHT22;454;53.254;10.400;2023-07-31T13:36:54;18.70;99.90
935;DHT22;454;53.254;10.400;2023-07-31T13:39:21;18.60;99.90
935;DHT22;454;53.254;10.400;2023-07-31T13:41:48;18.60;99.90
935;DHT22;454;53.254;10.400;2023-07-31T13:44:16;18.60;99.90
935;DHT22;454;53.254;10.400;2023-07-31T13:46:42;18.50;99.90
935;DHT22;454;53.254;10.400;2023-07-31T13:49:09;18.40;99.90
935;DHT22;454;53.254;10.400;2023-07-31T13:51:36;18.40;99.90
935;DHT22;454;53.254;10.400;2023-07-31T13:54:04;18.50;99.90
935;DHT22;454;53.254;10.400;2023-07-31T13:56:32;18.50;99.90
935;DHT22;454;53.254;10.400;2023-07-31T13:58:59;18.50;99.90
935;DHT22;454;53.254;10.400;2023-07-31T14:01:27;18.50;99.90
935;DHT22;454;53.254;10.400;2023-07-31T14:03:54;18.50;99.90
935;DHT22;454;53.254;10.400;2023-07-31T14:06:21;18.60;99.90
935;DHT22;454;53.254;10.400;2023-07-31T14:08:48;18.60;99.90
935;DHT22;454;53.254;10.400;2023-07-31T14:11:15;18.50;99.90
935;DHT22;454;53.254;10.400;2023-07-31T14:13:41;18.40;99.90
935;DHT22;454;53.254;10.400;2023-07-31T14:16:08;18.40;99.90
935;DHT22;454;53.254;10.400;2023-07-31T14:18:36;18.50;99.90
935;DHT22;454;53.254;10.400;2023-07-31T14:21:03;18.50;99.90
935;DHT22;454;53.254;10.400;2023-07-31T14:23:29;18.40;99.90
935;DHT22;454;53.254;10.400;2023-07-31T14:25:56;18.40;99.90
935;DHT22;454;53.254;10.400;2023-07-31T14:28:23;18.30;99.90
935;DHT22;454;53.254;10.400;2023-07-31T14:30:49;18.30;99.90
935;DHT22;454;53.254;10.400;2023-07-31T14:33:16;18.40;99.90
935;DHT22;454;53.254;10.400;2023-07-31T14:35:44;18.30;99.90
935;DHT22;454;53.254;10.400;2023-07-31T14:38:11;18.30;99.90
935;DHT22;454;53.254;10.400;2023-07-31T14:40:38;18.40;99.90
935;DHT22;454;53.254;10.400;2023-07-31T14:43:04;18.30;99.90
935;DHT22;454;53.254;10.400;2023-07-31T14:45:31;18.30;99.90
935;DHT22;454;53.254;10.400;2023-07-31T14:47:58;18.40;99.90
935;DHT22;454;53.254;10.400;2023-07-31T14:50:25;18.40;99.90
935;DHT22;454;53.254;10.400;2023-07-31T14:52:53;18.40;99.90
935;DHT22;454;53.254;10.400;2023-07-31T14:55:20;18.40;99.90
935;DHT22;454;53.254;10.400;2023-07-31T14:57:47;18.40;99.90
935;DHT22;454;53.254;10.400;2023-07-31T15:00:14;18.40;99.90
935;DHT22;454;53.254;10.400;2023-07-31T15:02:41;18.40;99.90
935;DHT22;454;53.254;10.400;2023-07-31T15:05:08;18.40;99.90
935;DHT22;454;53.254;10.400;2023-07-31T15:07:35;18.40;99.90
935;DHT22;454;53.254;10.400;2023-07-31T15:10:04;18.40;99.90
935;DHT22;454;53.254;10.400;2023-07-31T15:12:31;18.40;99.90
935;DHT22;454;53.254;10.400;2023-07-31T15:14:57;18.40;99.90
935;DHT22;454;53.254;10.400;2023-07-31T15:17:24;18.40;99.90
935;DHT22;454;53.254;10.400;2023-07-31T15:19:51;18.30;99.90
935;DHT22;454;53.254;10.400;2023-07-31T15:22:18;18.30;99.90
935;DHT22;454;53.254;10.400;2023-07-31T15:24:44;18.40;99.90
935;DHT22;454;53.254;10.400;2023-07-31T15:27:12;18.40;99.90
935;DHT22;454;53.254;10.400;2023-07-31T15:29:39;18.30;99.90
935;DHT22;454;53.254;10.400;2023-07-31T15:32:06;18.30;99.90
935;DHT22;454;53.254;10.400;2023-07-31T15:34:33;18.30;99.90
935;DHT22;454;53.254;10.400;2023-07-31T15:37:00;18.30;99.90
935;DHT22;454;53.254;10.400;2023-07-31T15:39:26;18.30;99.90
935;DHT22;454;53.254;10.400;2023-07-31T15:41:53;18.30;99.90
935;DHT22;454;53.254;10.400;2023-07-31T15:44:21;18.20;99.90
935;DHT22;454;53.254;10.400;2023-07-31T15:46:48;18.30;99.90
935;DHT22;454;53.254;10.400;2023-07-31T15:49:14;18.30;99.90
935;DHT22;454;53.254;10.400;2023-07-31T15:51:41;18.40;99.90
935;DHT22;454;53.254;10.400;2023-07-31T15:54:08;18.40;99.90
935;DHT22;454;53.254;10.400;2023-07-31T15:56:35;18.40;99.90
935;DHT22;454;53.254;10.400;2023-07-31T15:59:01;18.40;99.90
935;DHT22;454;53.254;10.400;2023-07-31T16:01:29;18.40;99.90
935;DHT22;454;53.254;10.400;2023-07-31T16:03:55;18.40;99.90
935;DHT22;454;53.254;10.400;2023-07-31T16:06:22;18.40;99.90
935;DHT22;454;53.254;10.400;2023-07-31T16:08:48;18.40;99.90
935;DHT22;454;53.254;10.400;2023-07-31T16:11:15;18.40;99.90
935;DHT22;454;53.254;10.400;2023-07-31T16:13:42;18.40;99.90
935;DHT22;454;53.254;10.400;2023-07-31T16:16:08;18.40;99.90
935;DHT22;454;53.254;10.400;2023-07-31T16:18:36;18.40;99.90
935;DHT22;454;53.254;10.400;2023-07-31T16:21:03;18.40;99.90
935;DHT22;454;53.254;10.400;2023-07-31T16:23:30;18.40;99.90
935;DHT22;454;53.254;10.400;2023-07-31T16:25:56;18.40;99.90
935;DHT22;454;53.254;10.400;2023-07-31T16:28:23;18.40;99.90
935;DHT22;454;53.254;10.400;2023-07-31T16:30:50;18.40;99.90
935;DHT22;454;53.254;10.400;2023-07-31T16:33:16;18.50;99.90
935;DHT22;454;53.254;10.400;2023-07-31T16:35:45;18.50;99.90
935;DHT22;454;53.254;10.400;2023-07-31T16:38:11;18.50;99.90
935;DHT22;454;53.254;10.400;2023-07-31T16:40:38;18.40;99.90
935;DHT22;454;53.254;10.400;2023-07-31T16:43:06;18.40;99.90
935;DHT22;454;53.254;10.400;2023-07-31T16:45:33;18.40;99.90
935;DHT22;454;53.254;10.400;2023-07-31T16:48:01;18.40;99.90
935;DHT22;454;53.254;10.400;2023-07-31T16:50:27;18.40;99.90
935;DHT22;454;53.254;10.400;2023-07-31T16:52:55;18.30;99.90
935;DHT22;454;53.254;10.400;2023-07-31T16:55:22;18.30;99.90
935;DHT22;454;53.254;10.400;2023-07-31T16:57:49;18.30;99.90
935;DHT22;454;53.254;10.400;2023-07-31T17:00:16;18.30;99.90
935;DHT22;454;53.254;10.400;2023-07-31T17:02:42;18.30;99.90
935;DHT22;454;53.254;10.400;2023-07-31T17:05:09;18.30;99.90
935;DHT22;454;53.254;10.400;2023-07-31T17:07:36;18.30;99.90
935;DHT22;454;53.254;10.400;2023-07-31T17:10:04;18.30;99.90
935;DHT22;454;53.254;10.400;2023-07-31T17:12:31;18.30;99.90
935;DHT22;454;53.254;10.400;2023-07-31T17:14:58;18.30;99.90
935;DHT22;454;53.254;10.400;2023-07-31T17:17:24;18.30;99.90
935;DHT22;454;53.254;10.400;2023-07-31T17:19:52;18.30;99.90
935;DHT22;454;53.254;10.400;2023-07-31T17:22:19;18.40;99.90
935;DHT22;454;53.254;10.400;2023-07-31T17:24:45;18.40;99.90
935;DHT22;454;53.254;10.400;2023-07-31T17:27:13;18.40;99.90
935;DHT22;454;53.254;10.400;2023-07-31T17:29:40;18.40;99.90
935;DHT22;454;53.254;10.400;2023-07-31T17:32:07;18.30;99.90
935;DHT22;454;53.254;10.400;2023-07-31T17:34:33;18.20;99.90
935;DHT22;454;53.254;10.400;2023-07-31T17:37:00;18.20;99.90
935;DHT22;454;53.254;10.400;2023-07-31T17:39:27;18.20;99.90
935;DHT22;454;53.254;10.400;2023-07-31T17:41:53;18.10;99.90
935;DHT22;454;53.254;10.400;2023-07-31T17:44:22;18.10;99.90
935;DHT22;454;53.254;10.400;2023-07-31T17:46:48;18.10;99.90
935;DHT22;454;53.254;10.400;2023-07-31T17:49:17;18.10;99.90
935;DHT22;454;53.254;10.400;2023-07-31T17:51:43;18.10;99.90
935;DHT22;454;53.254;10.400;2023-07-31T17:54:10;18.10;99.90
935;DHT22;454;53.254;10.400;2023-07-31T17:56:37;18.10;99.90
935;DHT22;454;53.254;10.400;2023-07-31T17:59:04;18.10;99.90
935;DHT22;454;53.254;10.400;2023-07-31T18:01:32;18.00;99.90
935;DHT22;454;53.254;10.400;2023-07-31T18:03:59;18.00;99.90
935;DHT22;454;53.254;10.400;2023-07-31T18:06:25;18.00;99.90
935;DHT22;454;53.254;10.400;2023-07-31T18:08:52;18.00;99.90
935;DHT22;454;53.254;10.400;2023-07-31T18:11:19;17.90;99.90
935;DHT22;454;53.254;10.400;2023-07-31T18:13:46;18.00;99.90
935;DHT22;454;53.254;10.400;2023-07-31T18:16:13;17.90;99.90
935;DHT22;454;53.254;10.400;2023-07-31T18:18:41;17.90;99.90
935;DHT22;454;53.254;10.400;2023-07-31T18:21:08;17.90;99.90
935;DHT22;454;53.254;10.400;2023-07-31T18:23:35;17.90;99.90
935;DHT22;454;53.254;10.400;2023-07-31T18:26:01;17.90;99.90
935;DHT22;454;53.254;10.400;2023-07-31T18:28:28;17.90;99.90
935;DHT22;454;53.254;10.400;2023-07-31T18:30:59;17.90;99.90
935;DHT22;454;53.254;10.400;2023-07-31T18:33:26;17.90;99.90
935;DHT22;454;53.254;10.400;2023-07-31T18:35:54;17.90;99.90
935;DHT22;454;53.254;10.400;2023-07-31T18:38:21;17.90;99.90
935;DHT22;454;53.254;10.400;2023-07-31T18:40:48;17.90;99.90
935;DHT22;454;53.254;10.400;2023-07-31T18:43:14;17.80;99.90
935;DHT22;454;53.254;10.400;2023-07-31T18:45:41;17.90;99.90
935;DHT22;454;53.254;10.400;2023-07-31T18:48:08;17.80;99.90
935;DHT22;454;53.254;10.400;2023-07-31T18:50:40;17.80;99.90
935;DHT22;454;53.254;10.400;2023-07-31T18:53:08;17.80;99.90
935;DHT22;454;53.254;10.400;2023-07-31T18:55:35;17.80;99.90
935;DHT22;454;53.254;10.400;2023-07-31T18:58:02;17.80;99.90
935;DHT22;454;53.254;10.400;2023-07-31T19:00:28;17.80;99.90
935;DHT22;454;53.254;10.400;2023-07-31T19:02:55;17.70;99.90
935;DHT22;454;53.254;10.400;2023-07-31T19:05:22;17.80;99.90
935;DHT22;454;53.254;10.400;2023-07-31T19:07:48;17.70;99.90
935;DHT22;454;53.254;10.400;2023-07-31T19:10:17;17.70;99.90
935;DHT22;454;53.254;10.400;2023-07-31T19:12:43;17.80;99.90
935;DHT22;454;53.254;10.400;2023-07-31T19:15:10;17.80;99.90
935;DHT22;454;53.254;10.400;2023-07-31T19:17:37;17.70;99.90
935;DHT22;454;53.254;10.400;2023-07-31T19:20:06;17.70;99.90
935;DHT22;454;53.254;10.400;2023-07-31T19:22:33;17.70;99.90
935;DHT22;454;53.254;10.400;2023-07-31T19:24:59;17.70;99.90
935;DHT22;454;53.254;10.400;2023-07-31T19:27:27;17.70;99.90
935;DHT22;454;53.254;10.400;2023-07-31T19:29:54;17.70;99.90
935;DHT22;454;53.254;10.400;2023-07-31T19:32:21;17.80;99.90
935;DHT22;454;53.254;10.400;2023-07-31T19:34:48;17.70;99.90
935;DHT22;454;53.254;10.400;2023-07-31T19:37:14;17.70;99.90
935;DHT22;454;53.254;10.400;2023-07-31T19:39:42;17.70;99.90
935;DHT22;454;53.254;10.400;2023-07-31T19:42:09;17.70;99.90
935;DHT22;454;53.254;10.400;2023-07-31T19:44:37;17.70;99.90
935;DHT22;454;53.254;10.400;2023-07-31T19:47:04;17.60;99.90
935;DHT22;454;53.254;10.400;2023-07-31T19:49:31;17.60;99.90
935;DHT22;454;53.254;10.400;2023-07-31T19:51:57;17.60;99.90
935;DHT22;454;53.254;10.400;2023-07-31T19:54:24;17.60;99.90
935;DHT22;454;53.254;10.400;2023-07-31T19:56:51;17.60;99.90
935;DHT22;454;53.254;10.400;2023-07-31T19:59:18;17.50;99.90
935;DHT22;454;53.254;10.400;2023-07-31T20:01:46;17.50;99.90
935;DHT22;454;53.254;10.400;2023-07-31T20:04:12;17.50;99.90
935;DHT22;454;53.254;10.400;2023-07-31T20:06:39;17.40;99.90
935;DHT22;454;53.254;10.400;2023-07-31T20:09:06;17.40;99.90
935;DHT22;454;53.254;10.400;2023-07-31T20:11:33;17.40;99.90
935;DHT22;454;53.254;10.400;2023-07-31T20:14:04;17.30;99.90
935;DHT22;454;53.254;10.400;2023-07-31T20:16:31;17.30;99.90
935;DHT22;454;53.254;10.400;2023-07-31T20:19:02;17.20;99.90
935;DHT22;454;53.254;10.400;2023-07-31T20:21:29;17.20;99.90
935;DHT22;454;53.254;10.400;2023-07-31T20:23:55;17.20;99.90
935;DHT22;454;53.254;10.400;2023-07-31T20:26:22;17.10;99.90
935;DHT22;454;53.254;10.400;2023-07-31T20:28:49;17.10;99.90
935;DHT22;454;53.254;10.400;2023-07-31T20:31:16;17.10;99.90
935;DHT22;454;53.254;10.400;2023-07-31T20:33:43;17.10;99.90